KOJ weather

Public forecast

Using degrees Celsius for public forecast. Weather courtesy of forecast.io.

Current aviation weather report (METAR) for Kagoshima Airport

Retrieved 2020/08/13 22:00 UTC (37 minutes ago):

RJFK 132200Z 35005KT 9999 BCFG FEW003 SCT015 26/25 Q1013

Aviation forecast (TAF) for Kagoshima Airport

Retrieved 2020/08/13 18:31 UTC (4 hours ago):

TAF RJFK 131709Z 1318/1500 29006KT 9999 FEW030 TEMPO 1319/1321 1500 BR FEW003 BKN005 BKN008